createdAt,value
2017-09-19T00:01:55.244Z,11.10
2017-09-19T00:04:23.580Z,11.00
2017-09-19T00:06:51.904Z,11.00
2017-09-19T00:09:20.235Z,10.90
2017-09-19T00:11:48.556Z,10.90
2017-09-19T00:14:16.887Z,10.90
2017-09-19T00:16:46.132Z,10.90
2017-09-19T00:19:14.484Z,11.00
2017-09-19T00:21:42.791Z,11.00
2017-09-19T00:24:11.108Z,11.00
2017-09-19T00:26:39.464Z,11.00
2017-09-19T00:29:07.785Z,11.00
2017-09-19T00:31:36.132Z,11.00
2017-09-19T00:34:04.457Z,11.10
2017-09-19T00:36:32.787Z,11.10
2017-09-19T00:39:01.104Z,11.10
2017-09-19T00:41:29.444Z,11.00
2017-09-19T00:43:57.999Z,11.00
2017-09-19T00:46:26.349Z,11.00
2017-09-19T00:48:54.675Z,11.00
2017-09-19T00:51:22.996Z,11.00
2017-09-19T00:53:51.336Z,11.00
2017-09-19T00:56:19.648Z,11.00
2017-09-19T00:58:47.980Z,11.10
2017-09-19T01:01:16.297Z,11.10
2017-09-19T01:03:44.627Z,11.10
2017-09-19T01:06:12.941Z,11.10
2017-09-19T01:08:41.281Z,11.10
2017-09-19T01:11:09.591Z,11.10
2017-09-19T01:13:37.956Z,11.10
2017-09-19T01:16:06.271Z,11.10
2017-09-19T01:18:34.584Z,11.10
2017-09-19T01:21:02.920Z,11.10
2017-09-19T01:23:31.245Z,11.10
2017-09-19T01:25:59.580Z,11.10
2017-09-19T01:28:27.896Z,11.10
2017-09-19T01:30:56.228Z,11.10
2017-09-19T01:33:24.548Z,11.20
2017-09-19T01:35:52.883Z,11.20
2017-09-19T01:38:21.192Z,11.20
2017-09-19T01:40:49.532Z,11.20
2017-09-19T01:43:17.860Z,11.20
2017-09-19T01:45:46.179Z,11.20
2017-09-19T01:48:14.529Z,11.20
2017-09-19T01:50:42.844Z,11.20
2017-09-19T01:53:11.176Z,11.20
2017-09-19T01:55:38.732Z,11.20
2017-09-19T01:58:07.071Z,11.20
2017-09-19T02:00:35.389Z,11.20
2017-09-19T02:03:03.743Z,11.10
2017-09-19T02:05:32.056Z,11.10
2017-09-19T02:08:00.372Z,11.10
2017-09-19T02:10:28.713Z,11.10
2017-09-19T02:12:57.038Z,11.10
2017-09-19T02:15:25.371Z,11.10
2017-09-19T02:17:53.684Z,11.10
2017-09-19T02:20:21.257Z,11.10
2017-09-19T02:22:49.572Z,11.00
2017-09-19T02:25:17.923Z,11.00
2017-09-19T02:27:46.235Z,11.00
2017-09-19T02:30:14.544Z,11.00
2017-09-19T02:32:42.888Z,11.00
2017-09-19T02:35:11.224Z,11.00
2017-09-19T02:37:39.557Z,11.00
2017-09-19T02:40:07.871Z,11.10
2017-09-19T02:42:36.202Z,11.10
2017-09-19T02:45:04.528Z,11.10
2017-09-19T02:47:32.856Z,11.10
2017-09-19T02:50:01.193Z,11.10
2017-09-19T02:52:29.532Z,11.10
2017-09-19T02:54:57.843Z,11.10
2017-09-19T02:57:26.185Z,11.10
2017-09-19T02:59:54.505Z,11.10
2017-09-19T03:02:22.864Z,11.10
2017-09-19T03:04:51.172Z,11.10
2017-09-19T03:07:19.488Z,11.10
2017-09-19T03:09:47.826Z,11.00
2017-09-19T03:12:16.132Z,11.00
2017-09-19T03:14:44.482Z,11.00
2017-09-19T03:17:12.797Z,10.90
2017-09-19T03:19:41.132Z,10.90
2017-09-19T03:22:09.449Z,10.90
2017-09-19T03:24:37.784Z,10.90
2017-09-19T03:27:06.112Z,10.90
2017-09-19T03:29:34.456Z,11.00
2017-09-19T03:32:02.776Z,11.00
2017-09-19T03:34:31.100Z,11.00
2017-09-19T03:36:59.431Z,11.00
2017-09-19T03:39:27.748Z,11.00
2017-09-19T03:41:56.087Z,11.00
2017-09-19T03:44:24.400Z,11.00
2017-09-19T03:46:52.740Z,11.00
2017-09-19T03:49:21.057Z,11.00
2017-09-19T03:51:49.413Z,11.00
2017-09-19T03:54:17.732Z,11.00
2017-09-19T03:56:46.045Z,11.00
2017-09-19T03:59:14.385Z,11.00
2017-09-19T04:01:42.699Z,11.00
2017-09-19T04:04:11.038Z,10.90
2017-09-19T04:06:39.363Z,10.90
2017-09-19T04:09:07.709Z,10.90
2017-09-19T04:11:36.016Z,11.00
2017-09-19T04:14:04.352Z,11.00
2017-09-19T04:16:32.665Z,11.00
2017-09-19T04:19:01.001Z,11.10
2017-09-19T04:21:29.320Z,11.10
2017-09-19T04:23:57.660Z,11.10
2017-09-19T04:26:25.976Z,11.10
2017-09-19T04:28:54.296Z,11.10
2017-09-19T04:31:22.620Z,11.10
2017-09-19T04:33:50.931Z,11.10
2017-09-19T04:36:19.260Z,11.20
2017-09-19T04:38:47.584Z,11.20
2017-09-19T04:41:15.920Z,11.20
2017-09-19T04:43:44.245Z,11.20
2017-09-19T04:46:12.588Z,11.20
2017-09-19T04:48:40.899Z,11.20
2017-09-19T04:51:09.233Z,11.20
2017-09-19T04:53:37.549Z,11.20
2017-09-19T04:56:05.884Z,11.20
2017-09-19T04:58:34.204Z,11.20
2017-09-19T05:01:02.559Z,11.20
2017-09-19T05:03:30.875Z,11.20
2017-09-19T05:05:59.188Z,11.20
2017-09-19T05:08:27.536Z,11.30
2017-09-19T05:10:55.859Z,11.30
2017-09-19T05:13:24.192Z,11.30
2017-09-19T05:15:52.513Z,11.30
2017-09-19T05:18:20.844Z,11.30
2017-09-19T05:20:49.159Z,11.30
2017-09-19T05:23:17.499Z,11.40
2017-09-19T05:25:45.820Z,11.40
2017-09-19T05:28:14.174Z,11.40
2017-09-19T05:30:42.492Z,11.40
2017-09-19T05:33:10.807Z,11.40
2017-09-19T05:35:39.140Z,11.40
2017-09-19T05:38:07.453Z,11.40
2017-09-19T05:40:35.797Z,11.40
2017-09-19T05:43:04.113Z,11.50
2017-09-19T05:45:32.452Z,11.50
2017-09-19T05:48:00.772Z,11.50
2017-09-19T05:50:29.105Z,11.60
2017-09-19T05:52:56.660Z,11.50
2017-09-19T05:55:25.016Z,11.60
2017-09-19T05:57:53.337Z,11.70
2017-09-19T06:00:21.660Z,11.70
2017-09-19T06:02:50.002Z,11.80
2017-09-19T06:05:18.371Z,11.80
2017-09-19T06:07:46.724Z,11.80
2017-09-19T06:10:15.040Z,11.90
2017-09-19T06:12:43.376Z,11.90
2017-09-19T06:15:11.701Z,11.90
2017-09-19T06:17:40.040Z,11.90
2017-09-19T06:20:08.351Z,11.90
2017-09-19T06:22:36.700Z,11.90
2017-09-19T06:25:05.017Z,11.90
2017-09-19T06:27:33.328Z,11.90
2017-09-19T06:30:00.900Z,11.90
2017-09-19T06:32:29.222Z,12.00
2017-09-19T06:34:57.552Z,12.10
2017-09-19T06:37:25.873Z,12.10
2017-09-19T06:39:54.203Z,12.20
2017-09-19T06:42:22.517Z,12.20
2017-09-19T06:44:50.871Z,12.40
2017-09-19T06:47:19.188Z,12.50
2017-09-19T06:49:47.499Z,12.80
2017-09-19T06:52:15.833Z,13.10
2017-09-19T06:54:43.388Z,13.10
2017-09-19T06:57:11.731Z,13.40
2017-09-19T06:59:40.048Z,13.30
2017-09-19T07:02:08.366Z,13.20
2017-09-19T07:04:36.708Z,13.10
2017-09-19T07:07:05.024Z,13.10
2017-09-19T07:09:33.371Z,13.00
2017-09-19T07:12:01.693Z,12.90
2017-09-19T07:14:30.053Z,13.00
2017-09-19T07:16:58.363Z,13.10
2017-09-19T07:19:26.705Z,13.20
2017-09-19T07:21:55.060Z,13.40
2017-09-19T07:24:23.373Z,13.60
2017-09-19T07:26:51.703Z,13.80
2017-09-19T07:29:20.012Z,13.90
2017-09-19T07:31:48.368Z,14.10
2017-09-19T07:34:16.690Z,14.20
2017-09-19T07:36:45.024Z,14.30
2017-09-19T07:39:13.341Z,14.40
2017-09-19T07:41:41.678Z,14.50
2017-09-19T07:44:09.991Z,14.40
2017-09-19T07:46:38.304Z,14.30
2017-09-19T07:49:06.640Z,14.30
2017-09-19T07:51:34.956Z,14.20
2017-09-19T07:54:03.279Z,14.10
2017-09-19T07:56:31.600Z,14.10
2017-09-19T07:58:59.923Z,14.10
2017-09-19T08:01:28.235Z,14.10
2017-09-19T08:03:56.584Z,14.10
2017-09-19T08:06:24.912Z,14.10
2017-09-19T08:08:53.224Z,14.20
2017-09-19T08:11:21.560Z,14.30
2017-09-19T08:13:49.889Z,14.50
2017-09-19T08:16:18.219Z,14.60
2017-09-19T08:18:46.532Z,14.70
2017-09-19T08:21:14.885Z,14.80
2017-09-19T08:23:43.198Z,14.90
2017-09-19T08:26:11.515Z,14.90
2017-09-19T08:28:39.857Z,14.90
2017-09-19T08:31:08.177Z,14.80
2017-09-19T08:33:36.513Z,14.90
2017-09-19T08:36:04.824Z,14.90
2017-09-19T08:38:33.165Z,15.10
2017-09-19T08:41:01.480Z,15.20
2017-09-19T08:43:29.828Z,15.40
2017-09-19T08:45:58.144Z,15.50
2017-09-19T08:48:26.459Z,15.40
2017-09-19T08:50:54.788Z,15.40
2017-09-19T08:53:23.101Z,15.40
2017-09-19T08:55:51.432Z,15.40
2017-09-19T08:58:19.753Z,15.40
2017-09-19T09:00:48.089Z,15.40
2017-09-19T09:03:16.408Z,15.50
2017-09-19T09:05:44.743Z,15.50
2017-09-19T09:08:13.056Z,15.50
2017-09-19T09:10:41.412Z,15.40
2017-09-19T09:13:09.720Z,15.30
2017-09-19T09:15:38.032Z,15.40
2017-09-19T09:18:06.381Z,15.40
2017-09-19T09:20:34.692Z,15.60
2017-09-19T09:23:03.036Z,15.70
2017-09-19T09:25:31.348Z,15.80
2017-09-19T09:27:59.693Z,16.00
2017-09-19T09:30:27.996Z,16.10
2017-09-19T09:32:56.365Z,16.10
2017-09-19T09:35:24.668Z,16.00
2017-09-19T09:37:52.980Z,16.10
2017-09-19T09:40:20.561Z,16.00
2017-09-19T09:42:48.921Z,16.10
2017-09-19T09:45:17.248Z,16.00
2017-09-19T09:47:45.557Z,15.80
2017-09-19T09:50:13.888Z,15.70
2017-09-19T09:52:42.200Z,15.60
2017-09-19T09:55:10.554Z,15.60
2017-09-19T09:57:38.884Z,15.60
2017-09-19T10:00:07.208Z,15.70
2017-09-19T10:02:35.555Z,15.70
2017-09-19T10:05:03.872Z,15.70
2017-09-19T10:07:32.205Z,15.70
2017-09-19T10:10:00.532Z,15.80
2017-09-19T10:12:28.868Z,15.80
2017-09-19T10:14:56.416Z,15.80
2017-09-19T10:17:24.756Z,16.00
2017-09-19T10:19:52.321Z,16.00
2017-09-19T10:22:20.672Z,16.30
2017-09-19T10:24:48.212Z,16.20
2017-09-19T10:27:16.524Z,16.30
2017-09-19T10:29:44.851Z,16.50
2017-09-19T10:32:13.164Z,16.90
2017-09-19T10:34:41.506Z,16.80
2017-09-19T10:37:09.821Z,16.70
2017-09-19T10:39:37.389Z,16.70
2017-09-19T10:42:05.699Z,16.60
2017-09-19T10:44:34.103Z,16.60
2017-09-19T10:47:02.414Z,16.80
2017-09-19T10:49:30.764Z,16.90
2017-09-19T10:51:59.104Z,16.80
2017-09-19T10:54:27.416Z,16.70
2017-09-19T10:56:55.743Z,16.60
2017-09-19T10:59:24.048Z,16.80
2017-09-19T11:01:52.470Z,17.40
2017-09-19T11:04:20.060Z,17.40
2017-09-19T11:06:48.388Z,17.90
2017-09-19T11:09:16.701Z,17.70
2017-09-19T11:11:45.032Z,17.40
2017-09-19T11:14:13.339Z,17.10
2017-09-19T11:16:41.683Z,17.00
2017-09-19T11:19:09.997Z,16.80
2017-09-19T11:21:38.372Z,16.70
2017-09-19T11:24:05.964Z,16.70
2017-09-19T11:26:34.378Z,17.30
2017-09-19T11:29:02.713Z,17.70
2017-09-19T11:31:31.037Z,18.30
2017-09-19T11:33:59.375Z,19.10
2017-09-19T11:36:28.692Z,19.50
2017-09-19T11:38:57.020Z,20.00
2017-09-19T11:41:26.364Z,20.30
2017-09-19T11:43:54.753Z,20.30
2017-09-19T11:46:23.079Z,20.00
2017-09-19T11:48:51.383Z,19.50
2017-09-19T11:51:19.728Z,19.00
2017-09-19T11:53:48.064Z,18.60
2017-09-19T11:56:16.396Z,18.40
2017-09-19T11:58:44.704Z,18.10
2017-09-19T12:01:13.043Z,17.80
2017-09-19T12:03:41.356Z,17.50
2017-09-19T12:06:09.689Z,17.50
2017-09-19T12:08:38.000Z,17.50
2017-09-19T12:11:06.331Z,17.70
2017-09-19T12:13:34.652Z,18.00
2017-09-19T12:16:02.999Z,18.30
2017-09-19T12:18:31.319Z,18.60
2017-09-19T12:20:59.636Z,18.80
2017-09-19T12:23:27.969Z,19.00
2017-09-19T12:25:56.278Z,19.10
2017-09-19T12:28:24.604Z,18.90
2017-09-19T12:30:52.913Z,18.70
2017-09-19T12:33:21.243Z,18.50
2017-09-19T12:35:49.559Z,18.10
2017-09-19T12:38:17.893Z,17.80
2017-09-19T12:40:47.144Z,17.60
2017-09-19T12:43:15.492Z,17.40
2017-09-19T12:45:43.795Z,17.30
2017-09-19T12:48:12.104Z,17.30
2017-09-19T12:50:40.435Z,17.30
2017-09-19T12:53:08.754Z,17.40
2017-09-19T12:55:37.087Z,17.50
2017-09-19T12:58:05.408Z,17.40
2017-09-19T13:00:33.744Z,17.40
2017-09-19T13:03:02.055Z,17.50
2017-09-19T13:05:30.392Z,17.60
2017-09-19T13:07:58.701Z,17.80
2017-09-19T13:10:27.065Z,18.30
2017-09-19T13:12:55.390Z,18.80
2017-09-19T13:15:23.715Z,19.50
2017-09-19T13:17:52.056Z,19.90
2017-09-19T13:20:21.299Z,19.60
2017-09-19T13:22:49.636Z,19.30
2017-09-19T13:25:18.155Z,19.20
2017-09-19T13:27:46.484Z,18.60
2017-09-19T13:30:14.808Z,18.30
2017-09-19T13:33:09.827Z,18.10
2017-09-19T13:35:37.379Z,18.10
2017-09-19T13:38:05.716Z,17.80
2017-09-19T13:40:34.066Z,17.50
2017-09-19T13:43:02.428Z,17.40
2017-09-19T13:45:30.744Z,17.30
2017-09-19T13:47:59.064Z,17.30
2017-09-19T13:50:27.399Z,17.50
2017-09-19T13:52:55.712Z,17.80
2017-09-19T13:55:24.058Z,18.10
2017-09-19T13:57:52.375Z,18.30
2017-09-19T14:00:19.945Z,18.30
2017-09-19T14:02:49.241Z,17.90
2017-09-19T14:05:17.568Z,17.70
2017-09-19T14:07:45.889Z,17.60
2017-09-19T14:10:14.248Z,17.50
2017-09-19T14:12:42.600Z,17.40
2017-09-19T14:15:10.924Z,17.10
2017-09-19T14:17:39.264Z,17.20
2017-09-19T14:20:07.575Z,17.70
2017-09-19T14:22:35.173Z,17.60
2017-09-19T14:25:03.492Z,18.40
2017-09-19T14:27:31.847Z,18.20
2017-09-19T14:30:00.172Z,18.30
2017-09-19T14:32:27.749Z,18.20
2017-09-19T14:34:56.072Z,18.30
2017-09-19T14:37:24.431Z,18.20
2017-09-19T14:39:52.757Z,18.40
2017-09-19T14:42:21.072Z,18.60
2017-09-19T14:44:49.413Z,18.50
2017-09-19T14:47:17.727Z,18.30
2017-09-19T14:49:46.076Z,18.30
2017-09-19T14:52:13.616Z,18.30
2017-09-19T14:54:41.959Z,18.20
2017-09-19T14:57:10.284Z,17.90
2017-09-19T14:59:38.617Z,17.80
2017-09-19T15:02:06.938Z,18.10
2017-09-19T15:04:35.297Z,18.40
2017-09-19T15:07:03.607Z,18.60
2017-09-19T15:09:31.916Z,18.90
2017-09-19T15:12:00.263Z,19.10
2017-09-19T15:14:28.584Z,19.20
2017-09-19T15:16:56.923Z,18.70
2017-09-19T15:19:25.242Z,18.10
2017-09-19T15:21:53.579Z,17.70
2017-09-19T15:24:21.896Z,17.20
2017-09-19T15:26:50.253Z,16.80
2017-09-19T15:29:18.567Z,16.50
2017-09-19T15:31:46.871Z,16.50
2017-09-19T15:34:14.444Z,16.50
2017-09-19T15:36:43.717Z,17.00
2017-09-19T15:39:12.057Z,17.10
2017-09-19T15:41:40.374Z,17.30
2017-09-19T15:44:08.714Z,17.20
2017-09-19T15:46:38.052Z,17.00
2017-09-19T15:49:06.408Z,16.80
2017-09-19T15:51:34.897Z,16.60
2017-09-19T15:54:03.268Z,16.50
2017-09-19T15:56:31.714Z,16.40
2017-09-19T15:59:00.044Z,16.50
2017-09-19T16:01:28.399Z,16.50
2017-09-19T16:03:55.956Z,16.60
2017-09-19T16:06:24.296Z,16.30
2017-09-19T16:08:52.607Z,16.10
2017-09-19T16:11:21.017Z,15.90
2017-09-19T16:13:49.369Z,15.70
2017-09-19T16:16:17.736Z,15.50
2017-09-19T16:18:46.055Z,15.40
2017-09-19T16:21:14.369Z,15.30
2017-09-19T16:23:42.730Z,15.20
2017-09-19T16:26:10.299Z,15.20
2017-09-19T16:28:38.672Z,15.30
2017-09-19T16:31:06.998Z,15.40
2017-09-19T16:33:35.336Z,15.50
2017-09-19T16:36:03.656Z,15.50
2017-09-19T16:38:31.996Z,15.40
2017-09-19T16:41:00.310Z,15.40
2017-09-19T16:43:28.671Z,15.20
2017-09-19T16:45:56.995Z,15.10
2017-09-19T16:48:25.332Z,15.00
2017-09-19T16:50:53.676Z,14.90
2017-09-19T16:53:21.240Z,14.90
2017-09-19T16:55:49.593Z,14.60
2017-09-19T16:58:17.907Z,14.50
2017-09-19T17:00:46.264Z,14.30
2017-09-19T17:03:14.582Z,14.20
2017-09-19T17:05:42.928Z,14.10
2017-09-19T17:08:11.240Z,13.90
2017-09-19T17:10:39.604Z,13.80
2017-09-19T17:13:07.934Z,13.60
2017-09-19T17:15:36.252Z,13.50
2017-09-19T17:18:04.600Z,13.30
2017-09-19T17:20:32.928Z,13.20
2017-09-19T17:23:01.267Z,13.00
2017-09-19T17:25:28.829Z,13.00
2017-09-19T17:27:57.202Z,12.70
2017-09-19T17:30:25.601Z,12.60
2017-09-19T17:32:53.952Z,12.50
2017-09-19T17:35:22.272Z,12.40
2017-09-19T17:37:50.640Z,12.20
2017-09-19T17:40:18.992Z,12.10
2017-09-19T17:42:47.348Z,12.00
2017-09-19T17:45:15.712Z,11.90
2017-09-19T17:47:44.044Z,11.80
2017-09-19T17:50:12.449Z,11.70
2017-09-19T17:52:40.792Z,11.60
2017-09-19T17:55:09.148Z,11.40
2017-09-19T17:57:37.480Z,11.40
2017-09-19T18:00:05.832Z,11.30
2017-09-19T18:02:34.160Z,11.20
2017-09-19T18:05:02.524Z,11.10
2017-09-19T18:07:30.872Z,11.00
2017-09-19T18:09:59.201Z,10.90
2017-09-19T18:12:27.557Z,10.80
2017-09-19T18:14:55.901Z,10.70
2017-09-19T18:17:24.244Z,10.60
2017-09-19T18:19:52.596Z,10.60
2017-09-19T18:22:20.940Z,10.50
2017-09-19T18:24:49.268Z,10.40
2017-09-19T18:27:17.615Z,10.40
2017-09-19T18:29:46.128Z,10.30
2017-09-19T18:32:15.451Z,10.20
2017-09-19T18:34:43.868Z,10.10
2017-09-19T18:37:12.187Z,10.10
2017-09-19T18:39:40.523Z,10.00
2017-09-19T18:42:08.854Z,9.90
2017-09-19T18:44:37.200Z,9.90
2017-09-19T18:47:05.595Z,9.90
2017-09-19T18:49:33.948Z,9.80
2017-09-19T18:52:02.329Z,9.70
2017-09-19T18:54:30.665Z,9.70
2017-09-19T18:56:59.151Z,9.70
2017-09-19T18:59:27.509Z,9.60
2017-09-19T19:01:55.828Z,9.60
2017-09-19T19:04:24.352Z,9.50
2017-09-19T19:06:52.844Z,9.50
2017-09-19T19:09:21.320Z,9.40
2017-09-19T19:11:49.725Z,9.40
2017-09-19T19:14:18.136Z,9.30
2017-09-19T19:16:46.525Z,9.30
2017-09-19T19:19:14.840Z,9.20
2017-09-19T19:21:43.216Z,9.20
2017-09-19T19:24:11.624Z,9.20
2017-09-19T19:26:39.975Z,9.10
2017-09-19T19:29:08.324Z,9.10
2017-09-19T19:31:36.690Z,9.10
2017-09-19T19:34:05.033Z,9.00
2017-09-19T19:36:33.348Z,9.00
2017-09-19T19:39:01.688Z,8.90
2017-09-19T19:41:30.002Z,8.90
2017-09-19T19:43:58.428Z,8.80
2017-09-19T19:46:26.760Z,8.80
2017-09-19T19:48:55.122Z,8.80
2017-09-19T19:51:23.477Z,8.70
2017-09-19T19:53:51.796Z,8.70
2017-09-19T19:56:20.153Z,8.70
2017-09-19T19:58:48.468Z,8.60
2017-09-19T20:01:16.829Z,8.60
2017-09-19T20:03:45.140Z,8.60
2017-09-19T20:06:13.613Z,8.60
2017-09-19T20:08:41.926Z,8.60
2017-09-19T20:11:10.313Z,8.60
2017-09-19T20:13:38.648Z,8.50
2017-09-19T20:16:06.993Z,8.50
2017-09-19T20:18:35.351Z,8.60
2017-09-19T20:21:03.687Z,8.60
2017-09-19T20:23:31.256Z,8.60
2017-09-19T20:25:59.568Z,8.60
2017-09-19T20:28:27.904Z,8.60
2017-09-19T20:30:56.225Z,8.60
2017-09-19T20:33:24.571Z,8.70
2017-09-19T20:35:52.884Z,8.70
2017-09-19T20:38:21.204Z,8.80
2017-09-19T20:40:49.565Z,8.80
2017-09-19T20:43:17.884Z,8.90
2017-09-19T20:45:46.256Z,8.90
2017-09-19T20:48:14.566Z,9.00
2017-09-19T20:50:42.899Z,9.00
2017-09-19T20:53:11.223Z,9.10
2017-09-19T20:55:39.638Z,9.20
2017-09-19T20:58:07.956Z,9.20
2017-09-19T21:00:36.307Z,9.30
2017-09-19T21:03:04.150Z,9.30
2017-09-19T21:05:37.436Z,9.30
2017-09-19T21:08:11.312Z,9.40
2017-09-19T21:10:45.188Z,9.40
2017-09-19T21:13:19.090Z,9.40
2017-09-19T21:15:53.170Z,9.40
2017-09-19T21:18:27.206Z,9.40
2017-09-19T21:20:55.574Z,9.50
2017-09-19T21:23:23.123Z,9.50
2017-09-19T21:25:51.444Z,9.50
2017-09-19T21:28:19.812Z,9.50
2017-09-19T21:30:48.252Z,9.60
2017-09-19T21:33:16.596Z,9.60
2017-09-19T21:35:44.907Z,9.60
2017-09-19T21:38:13.244Z,9.60
2017-09-19T21:40:41.564Z,9.70
2017-09-19T21:43:09.902Z,9.70
2017-09-19T21:45:38.222Z,9.70
2017-09-19T21:48:06.576Z,9.70
2017-09-19T21:50:34.893Z,9.70
2017-09-19T21:53:03.211Z,9.70
2017-09-19T21:55:31.647Z,9.80
2017-09-19T21:57:59.977Z,9.70
2017-09-19T22:00:28.325Z,9.80
2017-09-19T22:02:56.646Z,9.80
2017-09-19T22:05:24.977Z,9.80
2017-09-19T22:07:53.293Z,9.80
2017-09-19T22:10:21.712Z,9.80
2017-09-19T22:12:50.035Z,9.80
2017-09-19T22:15:18.498Z,9.80
2017-09-19T22:17:46.807Z,9.80
2017-09-19T22:20:15.120Z,9.80
2017-09-19T22:22:43.459Z,9.90
2017-09-19T22:25:11.768Z,9.90
2017-09-19T22:27:40.100Z,9.90
2017-09-19T22:30:08.423Z,9.90
2017-09-19T22:32:36.756Z,9.90
2017-09-19T22:35:05.073Z,9.90
2017-09-19T22:37:33.432Z,9.90
2017-09-19T22:40:01.821Z,9.90
2017-09-19T22:42:30.137Z,9.90
2017-09-19T22:44:58.503Z,9.90
2017-09-19T22:47:26.820Z,9.90
2017-09-19T22:49:55.163Z,9.90
2017-09-19T22:52:23.499Z,9.90
2017-09-19T22:54:51.905Z,9.90
2017-09-19T22:57:20.259Z,9.90
2017-09-19T22:59:48.639Z,9.90
2017-09-19T23:02:16.961Z,9.90
2017-09-19T23:04:45.287Z,9.90
2017-09-19T23:07:13.620Z,9.90
2017-09-19T23:09:41.949Z,9.80
2017-09-19T23:12:10.284Z,9.80
2017-09-19T23:14:37.879Z,9.80
2017-09-19T23:17:06.215Z,9.70
2017-09-19T23:19:34.544Z,9.70
2017-09-19T23:22:02.896Z,9.80
2017-09-19T23:24:31.204Z,9.80
2017-09-19T23:26:59.524Z,9.80
2017-09-19T23:29:27.872Z,9.90
2017-09-19T23:31:56.197Z,9.90
2017-09-19T23:34:24.540Z,9.90
2017-09-19T23:36:52.865Z,9.90
2017-09-19T23:39:21.200Z,9.90
2017-09-19T23:41:49.517Z,9.90
2017-09-19T23:44:17.859Z,9.90
2017-09-19T23:46:46.173Z,9.80
2017-09-19T23:49:14.485Z,9.80
2017-09-19T23:51:42.815Z,9.80
2017-09-19T23:54:11.133Z,9.80
2017-09-19T23:56:39.476Z,9.80
2017-09-19T23:59:07.794Z,9.80
